sensor_id;sensor_type;location;lat;lon;timestamp;pressure;altitude;pressure_sealevel;temperature;humidity
70468;BME280;57934;51.532;7.684;2023-01-30T00:00:32;100559.63;;;1.94;98.01
70468;BME280;57934;51.532;7.684;2023-01-30T00:02:58;100548.09;;;1.96;97.66
70468;BME280;57934;51.532;7.684;2023-01-30T00:05:24;100544.56;;;1.97;97.64
70468;BME280;57934;51.532;7.684;2023-01-30T00:07:50;100540.75;;;2.01;98.13
70468;BME280;57934;51.532;7.684;2023-01-30T00:10:16;100543.63;;;1.98;97.85
70468;BME280;57934;51.532;7.684;2023-01-30T00:12:42;100541.84;;;1.99;97.92
70468;BME280;57934;51.532;7.684;2023-01-30T00:15:08;100543.06;;;1.95;97.82
70468;BME280;57934;51.532;7.684;2023-01-30T00:17:34;100550.34;;;2.01;98.32
70468;BME280;57934;51.532;7.684;2023-01-30T00:20:01;100555.66;;;1.99;98.54
70468;BME280;57934;51.532;7.684;2023-01-30T00:22:26;100564.97;;;2.02;98.84
70468;BME280;57934;51.532;7.684;2023-01-30T00:24:52;100551.47;;;2.08;98.50
70468;BME280;57934;51.532;7.684;2023-01-30T00:27:18;100555.94;;;2.06;98.72
70468;BME280;57934;51.532;7.684;2023-01-30T00:29:44;100563.75;;;2.06;99.13
70468;BME280;57934;51.532;7.684;2023-01-30T00:32:11;100547.63;;;2.12;99.24
70468;BME280;57934;51.532;7.684;2023-01-30T00:34:39;100550.66;;;2.17;99.01
70468;BME280;57934;51.532;7.684;2023-01-30T00:37:07;100543.25;;;2.12;99.33
70468;BME280;57934;51.532;7.684;2023-01-30T00:39:33;100537.53;;;2.19;99.35
70468;BME280;57934;51.532;7.684;2023-01-30T00:42:00;100525.34;;;2.19;99.28
70468;BME280;57934;51.532;7.684;2023-01-30T00:44:45;100513.84;;;2.31;99.74
70468;BME280;57934;51.532;7.684;2023-01-30T00:47:40;100498.13;;;2.33;99.67
70468;BME280;57934;51.532;7.684;2023-01-30T00:50:06;100473.88;;;2.32;100.00
70468;BME280;57934;51.532;7.684;2023-01-30T00:52:34;100481.97;;;2.39;99.51
70468;BME280;57934;51.532;7.684;2023-01-30T00:55:00;100485.66;;;2.36;99.67
70468;BME280;57934;51.532;7.684;2023-01-30T00:57:26;100479.09;;;2.42;99.49
70468;BME280;57934;51.532;7.684;2023-01-30T00:59:52;100482.13;;;2.47;100.00
70468;BME280;57934;51.532;7.684;2023-01-30T01:02:19;100470.88;;;2.47;99.95
70468;BME280;57934;51.532;7.684;2023-01-30T01:04:45;100468.69;;;2.52;100.00
70468;BME280;57934;51.532;7.684;2023-01-30T01:07:13;100461.59;;;2.63;100.00
70468;BME280;57934;51.532;7.684;2023-01-30T01:09:39;100463.22;;;2.65;99.73
70468;BME280;57934;51.532;7.684;2023-01-30T01:12:05;100461.28;;;2.67;99.89
70468;BME280;57934;51.532;7.684;2023-01-30T01:14:32;100457.16;;;2.74;100.00
70468;BME280;57934;51.532;7.684;2023-01-30T01:16:58;100450.75;;;2.78;99.65
70468;BME280;57934;51.532;7.684;2023-01-30T01:19:25;100451.56;;;2.78;99.51
70468;BME280;57934;51.532;7.684;2023-01-30T01:21:51;100441.97;;;2.79;100.00
70468;BME280;57934;51.532;7.684;2023-01-30T01:24:17;100430.31;;;2.83;99.64
70468;BME280;57934;51.532;7.684;2023-01-30T01:26:43;100425.09;;;2.83;100.00
70468;BME280;57934;51.532;7.684;2023-01-30T01:29:14;100430.56;;;2.90;100.00
70468;BME280;57934;51.532;7.684;2023-01-30T01:31:42;100427.69;;;2.93;99.51
70468;BME280;57934;51.532;7.684;2023-01-30T01:34:09;100410.97;;;2.95;99.56
70468;BME280;57934;51.532;7.684;2023-01-30T01:36:35;100400.56;;;2.95;99.88
70468;BME280;57934;51.532;7.684;2023-01-30T01:39:01;100407.13;;;2.99;99.09
70468;BME280;57934;51.532;7.684;2023-01-30T01:41:29;100404.50;;;2.99;99.75
70468;BME280;57934;51.532;7.684;2023-01-30T01:44:06;100418.09;;;2.93;99.42
70468;BME280;57934;51.532;7.684;2023-01-30T01:46:54;100403.03;;;2.87;100.00
70468;BME280;57934;51.532;7.684;2023-01-30T01:49:23;100401.00;;;2.81;100.00
70468;BME280;57934;51.532;7.684;2023-01-30T01:51:55;100396.59;;;2.81;100.00
70468;BME280;57934;51.532;7.684;2023-01-30T01:57:12;100407.16;;;2.80;100.00
70468;BME280;57934;51.532;7.684;2023-01-30T01:59:48;100410.31;;;2.74;100.00
70468;BME280;57934;51.532;7.684;2023-01-30T02:02:16;100402.91;;;2.79;100.00
70468;BME280;57934;51.532;7.684;2023-01-30T02:04:44;100396.72;;;2.80;100.00
70468;BME280;57934;51.532;7.684;2023-01-30T02:07:38;100377.25;;;2.84;100.00
70468;BME280;57934;51.532;7.684;2023-01-30T02:10:10;100385.91;;;2.84;100.00
70468;BME280;57934;51.532;7.684;2023-01-30T02:12:39;100377.13;;;2.85;100.00
70468;BME280;57934;51.532;7.684;2023-01-30T02:15:06;100374.38;;;2.87;100.00
70468;BME280;57934;51.532;7.684;2023-01-30T02:17:32;100357.50;;;2.91;100.00
70468;BME280;57934;51.532;7.684;2023-01-30T02:36:28;100320.88;;;3.02;100.00
70468;BME280;57934;51.532;7.684;2023-01-30T02:39:15;100308.69;;;3.03;100.00
70468;BME280;57934;51.532;7.684;2023-01-30T02:41:50;100306.59;;;3.06;100.00
70468;BME280;57934;51.532;7.684;2023-01-30T02:44:25;100326.34;;;3.09;100.00
70468;BME280;57934;51.532;7.684;2023-01-30T02:47:03;100322.78;;;3.10;100.00
70468;BME280;57934;51.532;7.684;2023-01-30T02:49:38;100321.66;;;3.13;100.00
70468;BME280;57934;51.532;7.684;2023-01-30T02:52:08;100326.72;;;3.14;100.00
70468;BME280;57934;51.532;7.684;2023-01-30T02:54:36;100331.66;;;3.17;100.00
70468;BME280;57934;51.532;7.684;2023-01-30T02:57:02;100325.34;;;3.20;100.00
70468;BME280;57934;51.532;7.684;2023-01-30T02:59:36;100340.81;;;3.21;100.00
70468;BME280;57934;51.532;7.684;2023-01-30T03:11:19;100298.31;;;3.21;100.00
70468;BME280;57934;51.532;7.684;2023-01-30T03:13:52;100300.63;;;3.24;100.00
70468;BME280;57934;51.532;7.684;2023-01-30T03:16:39;100297.75;;;3.27;100.00
70468;BME280;57934;51.532;7.684;2023-01-30T03:19:09;100283.75;;;3.28;100.00
70468;BME280;57934;51.532;7.684;2023-01-30T03:21:43;100271.69;;;3.27;100.00
70468;BME280;57934;51.532;7.684;2023-01-30T03:24:13;100262.06;;;3.27;100.00
70468;BME280;57934;51.532;7.684;2023-01-30T03:26:52;100261.25;;;3.27;100.00
70468;BME280;57934;51.532;7.684;2023-01-30T03:29:19;100257.00;;;3.26;100.00
70468;BME280;57934;51.532;7.684;2023-01-30T03:31:46;100257.16;;;3.24;100.00
70468;BME280;57934;51.532;7.684;2023-01-30T03:34:12;100246.44;;;3.27;100.00
70468;BME280;57934;51.532;7.684;2023-01-30T03:36:38;100260.13;;;3.29;100.00
70468;BME280;57934;51.532;7.684;2023-01-30T03:39:04;100250.38;;;3.31;100.00
70468;BME280;57934;51.532;7.684;2023-01-30T03:41:30;100252.84;;;3.33;100.00
70468;BME280;57934;51.532;7.684;2023-01-30T03:43:56;100241.31;;;3.35;100.00
70468;BME280;57934;51.532;7.684;2023-01-30T03:46:23;100237.59;;;3.38;100.00
70468;BME280;57934;51.532;7.684;2023-01-30T03:48:49;100227.00;;;3.40;100.00
70468;BME280;57934;51.532;7.684;2023-01-30T03:51:15;100233.19;;;3.39;100.00
70468;BME280;57934;51.532;7.684;2023-01-30T03:53:41;100223.47;;;3.41;100.00
70468;BME280;57934;51.532;7.684;2023-01-30T03:56:08;100210.94;;;3.44;100.00
70468;BME280;57934;51.532;7.684;2023-01-30T03:58:35;100201.19;;;3.46;100.00
70468;BME280;57934;51.532;7.684;2023-01-30T04:01:14;100201.84;;;3.48;100.00
70468;BME280;57934;51.532;7.684;2023-01-30T04:03:40;100204.47;;;3.48;100.00
70468;BME280;57934;51.532;7.684;2023-01-30T04:06:06;100201.03;;;3.48;100.00
70468;BME280;57934;51.532;7.684;2023-01-30T04:08:32;100194.34;;;3.45;100.00
70468;BME280;57934;51.532;7.684;2023-01-30T04:10:59;100184.44;;;3.49;100.00
70468;BME280;57934;51.532;7.684;2023-01-30T04:13:25;100194.69;;;3.50;100.00
70468;BME280;57934;51.532;7.684;2023-01-30T04:15:51;100206.09;;;3.49;100.00
70468;BME280;57934;51.532;7.684;2023-01-30T04:18:35;100211.66;;;3.54;100.00
70468;BME280;57934;51.532;7.684;2023-01-30T04:21:27;100220.84;;;3.58;100.00
70468;BME280;57934;51.532;7.684;2023-01-30T04:23:53;100213.03;;;3.58;100.00
70468;BME280;57934;51.532;7.684;2023-01-30T04:26:19;100208.75;;;3.57;100.00
70468;BME280;57934;51.532;7.684;2023-01-30T04:28:45;100209.44;;;3.59;100.00
70468;BME280;57934;51.532;7.684;2023-01-30T04:31:12;100188.59;;;3.59;100.00
70468;BME280;57934;51.532;7.684;2023-01-30T04:33:44;100188.28;;;3.63;100.00
70468;BME280;57934;51.532;7.684;2023-01-30T04:36:11;100177.69;;;3.64;100.00
70468;BME280;57934;51.532;7.684;2023-01-30T04:38:38;100185.00;;;3.61;100.00
70468;BME280;57934;51.532;7.684;2023-01-30T04:41:06;100187.91;;;3.57;100.00
70468;BME280;57934;51.532;7.684;2023-01-30T04:43:34;100178.97;;;3.60;100.00
70468;BME280;57934;51.532;7.684;2023-01-30T04:46:15;100182.41;;;3.61;100.00
70468;BME280;57934;51.532;7.684;2023-01-30T04:48:41;100194.03;;;3.66;100.00
70468;BME280;57934;51.532;7.684;2023-01-30T04:51:09;100186.34;;;3.65;100.00
70468;BME280;57934;51.532;7.684;2023-01-30T04:53:36;100186.34;;;3.65;100.00
70468;BME280;57934;51.532;7.684;2023-01-30T04:56:03;100180.31;;;3.64;100.00
70468;BME280;57934;51.532;7.684;2023-01-30T04:58:29;100163.84;;;3.64;100.00
70468;BME280;57934;51.532;7.684;2023-01-30T05:00:55;100166.16;;;3.67;100.00
70468;BME280;57934;51.532;7.684;2023-01-30T05:03:21;100166.97;;;3.67;100.00
70468;BME280;57934;51.532;7.684;2023-01-30T05:05:47;100164.88;;;3.71;100.00
70468;BME280;57934;51.532;7.684;2023-01-30T05:08:14;100169.56;;;3.67;100.00
70468;BME280;57934;51.532;7.684;2023-01-30T05:10:40;100178.09;;;3.69;100.00
70468;BME280;57934;51.532;7.684;2023-01-30T05:13:06;100189.47;;;3.68;100.00
70468;BME280;57934;51.532;7.684;2023-01-30T05:15:32;100183.94;;;3.71;100.00
70468;BME280;57934;51.532;7.684;2023-01-30T05:17:59;100169.44;;;3.69;100.00
70468;BME280;57934;51.532;7.684;2023-01-30T05:20:24;100166.50;;;3.72;100.00
70468;BME280;57934;51.532;7.684;2023-01-30T05:22:51;100158.56;;;3.73;100.00
70468;BME280;57934;51.532;7.684;2023-01-30T05:25:16;100168.81;;;3.75;100.00
70468;BME280;57934;51.532;7.684;2023-01-30T05:27:43;100160.34;;;3.73;100.00
70468;BME280;57934;51.532;7.684;2023-01-30T05:30:09;100163.59;;;3.75;100.00
70468;BME280;57934;51.532;7.684;2023-01-30T05:32:35;100163.78;;;3.73;100.00
70468;BME280;57934;51.532;7.684;2023-01-30T05:35:01;100146.16;;;3.75;100.00
70468;BME280;57934;51.532;7.684;2023-01-30T05:37:27;100137.53;;;3.75;100.00
70468;BME280;57934;51.532;7.684;2023-01-30T05:39:53;100134.63;;;3.78;100.00
70468;BME280;57934;51.532;7.684;2023-01-30T05:42:19;100147.34;;;3.81;100.00
70468;BME280;57934;51.532;7.684;2023-01-30T05:44:45;100134.81;;;3.85;100.00
70468;BME280;57934;51.532;7.684;2023-01-30T05:47:11;100151.28;;;3.85;100.00
70468;BME280;57934;51.532;7.684;2023-01-30T05:49:37;100142.81;;;3.83;100.00
70468;BME280;57934;51.532;7.684;2023-01-30T05:52:03;100137.44;;;3.85;100.00
70468;BME280;57934;51.532;7.684;2023-01-30T05:54:29;100150.97;;;3.88;100.00
70468;BME280;57934;51.532;7.684;2023-01-30T05:56:55;100161.59;;;3.87;100.00
70468;BME280;57934;51.532;7.684;2023-01-30T05:59:21;100146.88;;;3.86;100.00
70468;BME280;57934;51.532;7.684;2023-01-30T06:01:47;100147.72;;;3.86;100.00
70468;BME280;57934;51.532;7.684;2023-01-30T06:04:13;100158.69;;;3.90;100.00
70468;BME280;57934;51.532;7.684;2023-01-30T06:06:39;100155.69;;;3.85;100.00
70468;BME280;57934;51.532;7.684;2023-01-30T06:09:05;100127.69;;;3.87;100.00
70468;BME280;57934;51.532;7.684;2023-01-30T06:11:31;100142.69;;;3.93;100.00
70468;BME280;57934;51.532;7.684;2023-01-30T06:13:57;100137.03;;;3.97;100.00
70468;BME280;57934;51.532;7.684;2023-01-30T06:16:22;100130.84;;;3.98;100.00
70468;BME280;57934;51.532;7.684;2023-01-30T06:18:48;100154.00;;;4.01;100.00
70468;BME280;57934;51.532;7.684;2023-01-30T06:21:15;100141.63;;;4.03;100.00
70468;BME280;57934;51.532;7.684;2023-01-30T06:23:42;100144.91;;;4.05;100.00
70468;BME280;57934;51.532;7.684;2023-01-30T06:26:08;100136.75;;;4.09;100.00
70468;BME280;57934;51.532;7.684;2023-01-30T06:28:35;100142.13;;;4.07;100.00
70468;BME280;57934;51.532;7.684;2023-01-30T06:31:01;100160.09;;;4.10;100.00
70468;BME280;57934;51.532;7.684;2023-01-30T06:33:27;100174.63;;;4.13;100.00
70468;BME280;57934;51.532;7.684;2023-01-30T06:35:53;100185.06;;;4.13;100.00
70468;BME280;57934;51.532;7.684;2023-01-30T06:38:19;100173.63;;;4.14;100.00
70468;BME280;57934;51.532;7.684;2023-01-30T06:40:49;100185.44;;;4.18;100.00
70468;BME280;57934;51.532;7.684;2023-01-30T06:43:15;100179.72;;;4.22;100.00
70468;BME280;57934;51.532;7.684;2023-01-30T06:45:41;100195.91;;;4.26;100.00
70468;BME280;57934;51.532;7.684;2023-01-30T06:48:07;100197.53;;;4.27;100.00
70468;BME280;57934;51.532;7.684;2023-01-30T06:50:34;100194.31;;;4.33;100.00
70468;BME280;57934;51.532;7.684;2023-01-30T06:53:02;100194.31;;;4.33;100.00
70468;BME280;57934;51.532;7.684;2023-01-30T06:55:32;100195.47;;;4.39;100.00
70468;BME280;57934;51.532;7.684;2023-01-30T06:58:08;100197.25;;;4.38;100.00
70468;BME280;57934;51.532;7.684;2023-01-30T07:00:34;100189.78;;;4.43;100.00
70468;BME280;57934;51.532;7.684;2023-01-30T07:03:01;100184.56;;;4.43;100.00
70468;BME280;57934;51.532;7.684;2023-01-30T07:05:28;100184.09;;;4.48;100.00
70468;BME280;57934;51.532;7.684;2023-01-30T07:07:55;100187.38;;;4.50;100.00
70468;BME280;57934;51.532;7.684;2023-01-30T07:10:21;100196.03;;;4.50;100.00
70468;BME280;57934;51.532;7.684;2023-01-30T07:12:47;100180.88;;;4.54;100.00
70468;BME280;57934;51.532;7.684;2023-01-30T07:15:13;100180.50;;;4.49;100.00
70468;BME280;57934;51.532;7.684;2023-01-30T07:17:40;100172.69;;;4.49;100.00
70468;BME280;57934;51.532;7.684;2023-01-30T07:20:08;100183.47;;;4.54;100.00
70468;BME280;57934;51.532;7.684;2023-01-30T07:22:34;100192.81;;;4.57;100.00
70468;BME280;57934;51.532;7.684;2023-01-30T07:25:00;100184.13;;;4.56;100.00
70468;BME280;57934;51.532;7.684;2023-01-30T07:27:26;100188.09;;;4.60;100.00
70468;BME280;57934;51.532;7.684;2023-01-30T07:29:52;100198.34;;;4.62;100.00
70468;BME280;57934;51.532;7.684;2023-01-30T07:32:18;100199.34;;;4.61;100.00
70468;BME280;57934;51.532;7.684;2023-01-30T07:34:45;100203.75;;;4.60;100.00
70468;BME280;57934;51.532;7.684;2023-01-30T07:37:11;100207.81;;;4.63;100.00
70468;BME280;57934;51.532;7.684;2023-01-30T07:39:37;100211.91;;;4.65;100.00
70468;BME280;57934;51.532;7.684;2023-01-30T07:42:03;100207.69;;;4.64;100.00
70468;BME280;57934;51.532;7.684;2023-01-30T07:44:30;100203.91;;;4.67;100.00
70468;BME280;57934;51.532;7.684;2023-01-30T07:46:56;100211.91;;;4.65;100.00
70468;BME280;57934;51.532;7.684;2023-01-30T07:49:22;100216.84;;;4.68;100.00
70468;BME280;57934;51.532;7.684;2023-01-30T07:51:48;100213.75;;;4.73;100.00
70468;BME280;57934;51.532;7.684;2023-01-30T07:54:14;100224.06;;;4.74;100.00
70468;BME280;57934;51.532;7.684;2023-01-30T07:56:40;100228.97;;;4.77;100.00
70468;BME280;57934;51.532;7.684;2023-01-30T07:59:06;100214.41;;;4.75;100.00
70468;BME280;57934;51.532;7.684;2023-01-30T08:01:32;100201.66;;;4.72;100.00
70468;BME280;57934;51.532;7.684;2023-01-30T08:03:58;100196.75;;;4.69;100.00
70468;BME280;57934;51.532;7.684;2023-01-30T08:06:24;100200.69;;;4.73;100.00
70468;BME280;57934;51.532;7.684;2023-01-30T08:08:50;100200.88;;;4.79;100.00
70468;BME280;57934;51.532;7.684;2023-01-30T08:11:16;100215.13;;;4.93;100.00
70468;BME280;57934;51.532;7.684;2023-01-30T08:13:43;100210.09;;;5.00;100.00
70468;BME280;57934;51.532;7.684;2023-01-30T08:16:09;100210.78;;;5.02;100.00
70468;BME280;57934;51.532;7.684;2023-01-30T08:18:35;100217.75;;;5.01;100.00
70468;BME280;57934;51.532;7.684;2023-01-30T08:21:03;100221.84;;;5.04;100.00
70468;BME280;57934;51.532;7.684;2023-01-30T08:23:33;100230.69;;;5.11;100.00
70468;BME280;57934;51.532;7.684;2023-01-30T08:26:01;100223.06;;;5.26;99.54
70468;BME280;57934;51.532;7.684;2023-01-30T08:28:28;100228.78;;;5.30;98.73
70468;BME280;57934;51.532;7.684;2023-01-30T08:30:55;100220.78;;;5.31;98.49
70468;BME280;57934;51.532;7.684;2023-01-30T08:33:22;100236.84;;;5.77;96.40
70468;BME280;57934;51.532;7.684;2023-01-30T08:35:48;100237.44;;;6.61;92.73
70468;BME280;57934;51.532;7.684;2023-01-30T08:38:14;100243.81;;;7.06;89.25
70468;BME280;57934;51.532;7.684;2023-01-30T08:40:41;100241.16;;;6.75;89.31
70468;BME280;57934;51.532;7.684;2023-01-30T08:43:07;100244.81;;;6.57;88.45
70468;BME280;57934;51.532;7.684;2023-01-30T08:45:33;100246.19;;;6.20;90.15
70468;BME280;57934;51.532;7.684;2023-01-30T08:48:00;100244.38;;;5.88;91.42
70468;BME280;57934;51.532;7.684;2023-01-30T08:50:27;100261.84;;;5.63;93.02
70468;BME280;57934;51.532;7.684;2023-01-30T08:52:53;100249.75;;;5.54;93.23
70468;BME280;57934;51.532;7.684;2023-01-30T08:55:19;100263.31;;;5.41;93.16
70468;BME280;57934;51.532;7.684;2023-01-30T08:57:46;100256.09;;;5.43;93.62
70468;BME280;57934;51.532;7.684;2023-01-30T09:00:13;100268.19;;;5.36;93.93
70468;BME280;57934;51.532;7.684;2023-01-30T09:02:39;100268.69;;;5.40;94.31
70468;BME280;57934;51.532;7.684;2023-01-30T09:05:06;100277.00;;;5.35;93.41
70468;BME280;57934;51.532;7.684;2023-01-30T09:07:32;100276.50;;;5.32;93.05
70468;BME280;57934;51.532;7.684;2023-01-30T09:09:58;100270.47;;;5.39;92.99
70468;BME280;57934;51.532;7.684;2023-01-30T09:12:25;100277.81;;;5.36;91.97
70468;BME280;57934;51.532;7.684;2023-01-30T09:14:51;100273.63;;;5.51;91.38
70468;BME280;57934;51.532;7.684;2023-01-30T09:17:23;100274.28;;;5.61;90.49
70468;BME280;57934;51.532;7.684;2023-01-30T09:19:49;100274.75;;;5.57;89.64
70468;BME280;57934;51.532;7.684;2023-01-30T09:22:16;100268.03;;;5.46;89.62
70468;BME280;57934;51.532;7.684;2023-01-30T09:24:42;100276.88;;;5.45;89.17
70468;BME280;57934;51.532;7.684;2023-01-30T09:27:08;100288.63;;;5.41;88.96
70468;BME280;57934;51.532;7.684;2023-01-30T09:29:34;100274.22;;;5.37;88.68
70468;BME280;57934;51.532;7.684;2023-01-30T09:32:00;100282.41;;;5.34;88.80
70468;BME280;57934;51.532;7.684;2023-01-30T09:34:26;100284.22;;;5.41;88.46
70468;BME280;57934;51.532;7.684;2023-01-30T09:36:57;100298.00;;;5.68;87.76
70468;BME280;57934;51.532;7.684;2023-01-30T09:39:25;100292.63;;;5.69;86.36
70468;BME280;57934;51.532;7.684;2023-01-30T09:44:59;100300.78;;;5.74;86.50
70468;BME280;57934;51.532;7.684;2023-01-30T09:47:46;100300.31;;;5.87;85.37
70468;BME280;57934;51.532;7.684;2023-01-30T09:50:47;100305.19;;;5.82;85.02
70468;BME280;57934;51.532;7.684;2023-01-30T09:53:35;100319.25;;;5.73;84.47
70468;BME280;57934;51.532;7.684;2023-01-30T09:56:03;100303.53;;;5.65;84.24
70468;BME280;57934;51.532;7.684;2023-01-30T09:58:58;100315.13;;;5.54;83.94
70468;BME280;57934;51.532;7.684;2023-01-30T10:04:24;100312.97;;;5.41;84.07
70468;BME280;57934;51.532;7.684;2023-01-30T10:07:13;100320.66;;;5.43;83.73
70468;BME280;57934;51.532;7.684;2023-01-30T10:10:12;100322.31;;;5.52;84.01
70468;BME280;57934;51.532;7.684;2023-01-30T10:18:48;100313.38;;;5.71;83.17
70468;BME280;57934;51.532;7.684;2023-01-30T10:27:30;100314.44;;;6.19;81.09
70468;BME280;57934;51.532;7.684;2023-01-30T10:30:01;100304.72;;;6.52;80.01
70468;BME280;57934;51.532;7.684;2023-01-30T10:32:43;100296.72;;;6.45;79.04
70468;BME280;57934;51.532;7.684;2023-01-30T10:35:23;100305.91;;;6.50;78.72
70468;BME280;57934;51.532;7.684;2023-01-30T10:38:19;100309.66;;;6.47;78.61
70468;BME280;57934;51.532;7.684;2023-01-30T10:43:43;100312.78;;;6.34;79.89
70468;BME280;57934;51.532;7.684;2023-01-30T10:49:26;100304.13;;;6.01;80.29
70468;BME280;57934;51.532;7.684;2023-01-30T10:55:18;100302.59;;;5.82;80.86
70468;BME280;57934;51.532;7.684;2023-01-30T11:00:38;100305.75;;;5.94;80.82
70468;BME280;57934;51.532;7.684;2023-01-30T11:03:34;100294.13;;;5.96;79.31
70468;BME280;57934;51.532;7.684;2023-01-30T11:06:07;100305.06;;;6.00;78.95
70468;BME280;57934;51.532;7.684;2023-01-30T11:08:36;100311.16;;;6.01;79.27
70468;BME280;57934;51.532;7.684;2023-01-30T11:14:08;100306.91;;;6.08;78.76
70468;BME280;57934;51.532;7.684;2023-01-30T11:16:53;100316.03;;;6.04;79.08
70468;BME280;57934;51.532;7.684;2023-01-30T11:19:23;100316.72;;;6.06;78.80
70468;BME280;57934;51.532;7.684;2023-01-30T11:21:54;100324.06;;;6.10;78.93
70468;BME280;57934;51.532;7.684;2023-01-30T11:24:31;100335.69;;;6.08;79.43
70468;BME280;57934;51.532;7.684;2023-01-30T11:27:15;100339.28;;;5.98;79.80
70468;BME280;57934;51.532;7.684;2023-01-30T11:29:42;100328.31;;;5.95;79.56
70468;BME280;57934;51.532;7.684;2023-01-30T11:32:14;100329.41;;;5.84;80.06
70468;BME280;57934;51.532;7.684;2023-01-30T11:35:02;100340.06;;;5.91;81.46
70468;BME280;57934;51.532;7.684;2023-01-30T11:37:34;100325.81;;;5.77;82.57
70468;BME280;57934;51.532;7.684;2023-01-30T11:40:14;100339.84;;;5.68;83.49
70468;BME280;57934;51.532;7.684;2023-01-30T11:42:50;100334.72;;;5.42;83.26
70468;BME280;57934;51.532;7.684;2023-01-30T11:45:17;100337.63;;;5.31;84.61
70468;BME280;57934;51.532;7.684;2023-01-30T11:47:49;100323.25;;;5.35;85.29
70468;BME280;57934;51.532;7.684;2023-01-30T11:50:17;100326.84;;;5.34;84.90
70468;BME280;57934;51.532;7.684;2023-01-30T11:52:45;100328.34;;;5.44;84.80
70468;BME280;57934;51.532;7.684;2023-01-30T11:55:14;100334.41;;;5.45;84.98
70468;BME280;57934;51.532;7.684;2023-01-30T11:57:52;100329.63;;;5.40;85.12
70468;BME280;57934;51.532;7.684;2023-01-30T12:00:28;100329.97;;;5.45;84.66
70468;BME280;57934;51.532;7.684;2023-01-30T12:03:04;100326.44;;;5.71;83.46
70468;BME280;57934;51.532;7.684;2023-01-30T12:05:33;100328.44;;;5.85;82.15
70468;BME280;57934;51.532;7.684;2023-01-30T12:10:43;100327.19;;;6.06;81.43
70468;BME280;57934;51.532;7.684;2023-01-30T12:13:20;100310.81;;;6.12;79.78
70468;BME280;57934;51.532;7.684;2023-01-30T12:15:52;100329.00;;;6.30;80.28
70468;BME280;57934;51.532;7.684;2023-01-30T12:18:26;100341.75;;;6.41;79.09
70468;BME280;57934;51.532;7.684;2023-01-30T12:20:58;100323.59;;;6.39;78.84
70468;BME280;57934;51.532;7.684;2023-01-30T12:26:49;100330.44;;;6.00;79.72
70468;BME280;57934;51.532;7.684;2023-01-30T12:29:25;100346.28;;;5.90;80.74
70468;BME280;57934;51.532;7.684;2023-01-30T12:32:06;100348.06;;;5.81;80.41
70468;BME280;57934;51.532;7.684;2023-01-30T12:34:34;100338.44;;;5.90;81.50
70468;BME280;57934;51.532;7.684;2023-01-30T12:40:25;100352.56;;;6.21;80.01
70468;BME280;57934;51.532;7.684;2023-01-30T12:46:09;100338.97;;;6.42;78.77
70468;BME280;57934;51.532;7.684;2023-01-30T12:48:49;100328.66;;;6.57;78.47
70468;BME280;57934;51.532;7.684;2023-01-30T13:02:59;100339.72;;;6.84;76.39
70468;BME280;57934;51.532;7.684;2023-01-30T13:05:42;100343.69;;;6.63;75.98
70468;BME280;57934;51.532;7.684;2023-01-30T13:14:33;100353.19;;;5.99;81.15
70468;BME280;57934;51.532;7.684;2023-01-30T13:19:50;100346.63;;;5.95;81.04
70468;BME280;57934;51.532;7.684;2023-01-30T13:25:37;100356.16;;;6.04;79.73
70468;BME280;57934;51.532;7.684;2023-01-30T13:28:15;100359.56;;;6.13;78.45
70468;BME280;57934;51.532;7.684;2023-01-30T13:30:44;100356.47;;;6.26;77.71
70468;BME280;57934;51.532;7.684;2023-01-30T13:33:15;100351.72;;;6.37;76.77
70468;BME280;57934;51.532;7.684;2023-01-30T13:35:50;100351.91;;;6.44;76.34
70468;BME280;57934;51.532;7.684;2023-01-30T13:38:20;100365.97;;;6.51;75.65
70468;BME280;57934;51.532;7.684;2023-01-30T13:40:48;100371.69;;;6.63;75.67
70468;BME280;57934;51.532;7.684;2023-01-30T13:43:23;100361.34;;;6.69;73.89
70468;BME280;57934;51.532;7.684;2023-01-30T13:45:53;100368.25;;;6.71;73.18
70468;BME280;57934;51.532;7.684;2023-01-30T13:48:51;100371.34;;;6.66;72.73
70468;BME280;57934;51.532;7.684;2023-01-30T13:51:47;100376.59;;;6.58;71.40
70468;BME280;57934;51.532;7.684;2023-01-30T13:57:17;100380.19;;;6.81;71.32
70468;BME280;57934;51.532;7.684;2023-01-30T14:00:21;100390.28;;;7.09;70.81
70468;BME280;57934;51.532;7.684;2023-01-30T14:03:14;100424.06;;;6.96;68.73
70468;BME280;57934;51.532;7.684;2023-01-30T14:08:24;100413.28;;;6.74;70.04
70468;BME280;57934;51.532;7.684;2023-01-30T14:10:52;100426.72;;;6.71;70.72
70468;BME280;57934;51.532;7.684;2023-01-30T14:13:23;100405.75;;;6.71;70.07
70468;BME280;57934;51.532;7.684;2023-01-30T14:16:00;100417.88;;;6.72;69.34
70468;BME280;57934;51.532;7.684;2023-01-30T14:18:30;100409.00;;;6.73;68.93
70468;BME280;57934;51.532;7.684;2023-01-30T14:21:17;100417.69;;;6.74;69.27
70468;BME280;57934;51.532;7.684;2023-01-30T14:23:55;100426.38;;;6.74;69.38
70468;BME280;57934;51.532;7.684;2023-01-30T14:48:37;100459.09;;;6.45;72.28
70468;BME280;57934;51.532;7.684;2023-01-30T14:51:25;100492.94;;;6.14;74.48
70468;BME280;57934;51.532;7.684;2023-01-30T14:54:01;100481.91;;;5.94;76.43
70468;BME280;57934;51.532;7.684;2023-01-30T15:04:44;100528.84;;;5.18;84.03
70468;BME280;57934;51.532;7.684;2023-01-30T15:07:27;100529.16;;;5.15;83.59
70468;BME280;57934;51.532;7.684;2023-01-30T15:10:20;100532.22;;;5.10;82.91
70468;BME280;57934;51.532;7.684;2023-01-30T15:23:48;100579.34;;;5.62;79.28
70468;BME280;57934;51.532;7.684;2023-01-30T15:31:33;100592.63;;;5.69;79.86
70468;BME280;57934;51.532;7.684;2023-01-30T15:33:59;100595.25;;;5.69;79.52
70468;BME280;57934;51.532;7.684;2023-01-30T15:36:33;100598.16;;;5.66;79.59
70468;BME280;57934;51.532;7.684;2023-01-30T15:39:05;100588.53;;;5.66;80.42
70468;BME280;57934;51.532;7.684;2023-01-30T15:41:40;100601.31;;;5.69;80.50